createdAt,value
2022-12-16T00:02:01.139Z,63.60
2022-12-16T00:04:27.914Z,56.35
2022-12-16T00:06:54.336Z,58.60
2022-12-16T00:09:21.232Z,56.92
2022-12-16T00:11:47.679Z,47.45
2022-12-16T00:14:14.168Z,52.22
2022-12-16T00:16:40.584Z,55.70
2022-12-16T00:19:07.247Z,52.25
2022-12-16T00:21:33.667Z,53.00
2022-12-16T00:24:00.075Z,52.33
2022-12-16T00:26:26.590Z,50.40
2022-12-16T00:28:52.981Z,53.95
2022-12-16T00:31:21.855Z,51.90
2022-12-16T00:33:52.879Z,53.53
2022-12-16T00:36:19.350Z,53.70
2022-12-16T00:38:45.727Z,50.70
2022-12-16T00:41:12.309Z,56.10
2022-12-16T00:43:38.901Z,54.20
2022-12-16T00:46:05.603Z,53.00
2022-12-16T00:48:32.004Z,59.40
2022-12-16T00:50:58.529Z,54.85
2022-12-16T00:53:25.249Z,49.80
2022-12-16T00:56:01.007Z,52.05
2022-12-16T00:58:27.427Z,53.42
2022-12-16T01:00:53.894Z,50.30
2022-12-16T01:03:22.137Z,51.03
2022-12-16T01:05:49.295Z,54.10
2022-12-16T01:08:16.075Z,49.78
2022-12-16T01:10:42.554Z,47.45
2022-12-16T01:13:09.114Z,50.15
2022-12-16T01:15:37.608Z,49.13
2022-12-16T01:18:04.651Z,52.05
2022-12-16T01:20:33.046Z,48.30
2022-12-16T01:22:59.438Z,47.10
2022-12-16T01:25:26.563Z,50.75
2022-12-16T01:27:52.993Z,53.15
2022-12-16T01:30:19.380Z,51.53
2022-12-16T01:32:45.827Z,51.03
2022-12-16T01:35:43.779Z,52.70
2022-12-16T01:37:59.614Z,48.13
2022-12-16T01:40:26.167Z,46.83
2022-12-16T01:42:52.582Z,44.67
2022-12-16T01:45:37.810Z,45.53
2022-12-16T01:48:21.199Z,44.53
2022-12-16T01:50:49.703Z,49.15
2022-12-16T01:53:16.427Z,47.40
2022-12-16T01:55:48.534Z,46.63
2022-12-16T01:58:23.848Z,40.45
2022-12-16T02:00:50.798Z,46.00
2022-12-16T02:03:17.591Z,42.40
2022-12-16T02:05:45.868Z,44.45
2022-12-16T02:08:15.007Z,48.13
2022-12-16T02:10:44.247Z,44.28
2022-12-16T02:13:46.852Z,40.35
2022-12-16T02:16:19.066Z,39.60
2022-12-16T02:19:10.993Z,44.00
2022-12-16T02:21:37.390Z,44.83
2022-12-16T02:24:56.164Z,51.17
2022-12-16T02:27:44.060Z,46.08
2022-12-16T02:30:22.891Z,45.97
2022-12-16T02:32:55.454Z,48.80
2022-12-16T02:35:56.894Z,65.20
2022-12-16T02:38:39.729Z,43.88
2022-12-16T02:41:28.446Z,51.70
2022-12-16T02:43:59.185Z,46.63
2022-12-16T02:46:28.505Z,50.22
2022-12-16T02:48:55.049Z,52.58
2022-12-16T02:51:25.722Z,47.75
2022-12-16T02:53:55.579Z,50.75
2022-12-16T02:56:43.103Z,54.38
2022-12-16T02:59:18.751Z,50.13
2022-12-16T03:01:57.242Z,52.63
2022-12-16T03:04:49.715Z,51.83
2022-12-16T03:07:19.332Z,49.92
2022-12-16T03:09:47.195Z,56.25
2022-12-16T03:12:16.476Z,50.15
2022-12-16T03:14:48.432Z,57.38
2022-12-16T03:17:16.743Z,53.78
2022-12-16T03:19:54.721Z,47.25
2022-12-16T03:22:26.006Z,53.30
2022-12-16T03:24:52.480Z,54.33
2022-12-16T03:27:32.125Z,48.45
2022-12-16T03:30:09.646Z,46.92
2022-12-16T03:32:44.249Z,48.63
2022-12-16T03:35:16.250Z,48.92
2022-12-16T03:37:46.454Z,52.28
2022-12-16T03:40:14.344Z,41.70
2022-12-16T03:42:43.273Z,53.78
2022-12-16T03:45:15.360Z,48.40
2022-12-16T03:47:42.259Z,53.53
2022-12-16T03:50:09.128Z,56.80
2022-12-16T03:52:36.212Z,43.35
2022-12-16T03:55:02.829Z,59.05
2022-12-16T03:57:29.493Z,52.75
2022-12-16T03:59:55.925Z,57.30
2022-12-16T04:02:22.486Z,53.35
2022-12-16T04:04:49.105Z,53.55
2022-12-16T04:07:21.428Z,48.03
2022-12-16T04:09:49.457Z,58.67
2022-12-16T04:12:34.551Z,58.25
2022-12-16T04:15:20.021Z,56.80
2022-12-16T04:18:04.882Z,62.50
2022-12-16T04:20:56.739Z,53.70
2022-12-16T04:23:57.844Z,60.08
2022-12-16T04:26:24.295Z,60.80
2022-12-16T04:28:50.676Z,56.50
2022-12-16T04:31:17.203Z,62.80
2022-12-16T04:34:02.376Z,52.22
2022-12-16T04:36:47.222Z,53.25
2022-12-16T04:39:31.990Z,51.38
2022-12-16T04:42:16.986Z,59.53
2022-12-16T04:45:02.313Z,60.65
2022-12-16T04:47:47.133Z,59.47
2022-12-16T04:50:32.094Z,59.75
2022-12-16T04:53:16.801Z,54.92
2022-12-16T04:56:04.484Z,55.38
2022-12-16T04:58:50.333Z,56.65
2022-12-16T05:01:35.403Z,60.90
2022-12-16T05:04:20.506Z,60.92
2022-12-16T05:07:05.283Z,58.35
2022-12-16T05:09:50.266Z,64.18
2022-12-16T05:12:35.122Z,61.40
2022-12-16T05:15:20.103Z,62.97
2022-12-16T05:18:04.972Z,61.17
2022-12-16T05:20:49.873Z,65.60
2022-12-16T05:23:35.242Z,55.45
2022-12-16T05:26:20.418Z,60.92
2022-12-16T05:29:05.305Z,60.08
2022-12-16T05:31:50.042Z,59.30
2022-12-16T05:34:34.905Z,59.47
2022-12-16T05:37:19.711Z,58.55
2022-12-16T05:40:04.518Z,59.05
2022-12-16T05:42:49.383Z,67.30
2022-12-16T05:45:34.242Z,56.65
2022-12-16T05:48:19.157Z,65.97
2022-12-16T05:51:03.942Z,53.65
2022-12-16T05:53:48.988Z,63.28
2022-12-16T05:56:33.789Z,57.97
2022-12-16T05:59:19.217Z,64.55
2022-12-16T06:02:04.240Z,61.30
2022-12-16T06:04:49.519Z,65.63
2022-12-16T06:07:34.389Z,68.03
2022-12-16T06:10:19.205Z,56.45
2022-12-16T06:13:07.290Z,56.50
2022-12-16T06:15:52.165Z,56.90
2022-12-16T06:18:37.372Z,55.88
2022-12-16T06:21:22.853Z,53.50
2022-12-16T06:24:07.733Z,53.00
2022-12-16T06:26:52.590Z,59.10
2022-12-16T06:29:37.264Z,56.42
2022-12-16T06:32:22.498Z,55.00
2022-12-16T06:35:07.300Z,59.45
2022-12-16T06:37:52.130Z,62.25
2022-12-16T06:40:36.913Z,60.75
2022-12-16T06:43:21.917Z,59.83
2022-12-16T06:46:07.005Z,57.78
2022-12-16T06:48:51.914Z,58.40
2022-12-16T06:51:36.816Z,61.15
2022-12-16T06:54:21.565Z,64.03
2022-12-16T06:57:06.372Z,56.65
2022-12-16T06:59:51.022Z,60.72
2022-12-16T07:02:35.983Z,58.83
2022-12-16T07:05:21.089Z,55.55
2022-12-16T07:08:10.024Z,52.83
2022-12-16T07:11:00.362Z,55.53
2022-12-16T07:13:54.122Z,51.88
2022-12-16T07:16:39.181Z,53.78
2022-12-16T07:19:24.260Z,52.63
2022-12-16T07:22:09.205Z,55.53
2022-12-16T07:24:53.953Z,55.70
2022-12-16T07:27:38.801Z,60.90
2022-12-16T07:30:24.246Z,55.10
2022-12-16T07:33:09.463Z,54.58
2022-12-16T07:35:54.320Z,58.78
2022-12-16T07:38:39.125Z,51.40
2022-12-16T07:41:44.386Z,48.75
2022-12-16T07:44:29.732Z,60.45
2022-12-16T07:47:14.396Z,107.78
2022-12-16T07:50:19.437Z,101.18
2022-12-16T07:53:04.522Z,104.57
2022-12-16T07:55:49.112Z,71.05
2022-12-16T07:58:33.861Z,58.17
2022-12-16T08:01:19.846Z,63.72
2022-12-16T08:04:05.221Z,62.92
2022-12-16T08:06:50.434Z,56.03
2022-12-16T08:09:35.615Z,82.32
2022-12-16T08:12:20.563Z,67.97
2022-12-16T08:15:05.388Z,60.63
2022-12-16T08:17:50.185Z,54.35
2022-12-16T08:20:37.603Z,60.25
2022-12-16T08:23:22.944Z,61.85
2022-12-16T08:26:08.084Z,52.03
2022-12-16T08:28:53.870Z,42.65
2022-12-16T08:31:38.633Z,43.65
2022-12-16T08:34:23.443Z,44.30
2022-12-16T08:37:08.567Z,44.00
2022-12-16T08:40:17.576Z,47.95
2022-12-16T08:42:58.745Z,50.20
2022-12-16T08:45:44.010Z,46.90
2022-12-16T08:48:29.093Z,48.30
2022-12-16T08:51:14.460Z,44.97
2022-12-16T08:53:59.880Z,40.58
2022-12-16T08:56:44.632Z,41.38
2022-12-16T08:59:29.562Z,51.63
2022-12-16T09:02:14.493Z,43.92
2022-12-16T09:04:59.885Z,39.38
2022-12-16T09:07:45.074Z,42.97
2022-12-16T09:10:32.278Z,43.40
2022-12-16T09:13:28.950Z,50.42
2022-12-16T09:16:17.681Z,41.65
2022-12-16T09:19:04.522Z,39.75
2022-12-16T09:21:49.849Z,49.75
2022-12-16T09:24:34.652Z,47.90
2022-12-16T09:27:19.909Z,45.78
2022-12-16T09:30:05.028Z,45.72
2022-12-16T09:32:49.982Z,42.55
2022-12-16T09:35:35.372Z,47.90
2022-12-16T09:38:20.384Z,38.97
2022-12-16T09:41:05.179Z,38.45
2022-12-16T09:44:25.405Z,39.45
2022-12-16T09:47:31.056Z,42.25
2022-12-16T09:50:15.955Z,38.13
2022-12-16T09:53:06.996Z,39.72
2022-12-16T09:55:56.824Z,38.28
2022-12-16T09:58:45.215Z,36.92
2022-12-16T10:01:32.181Z,33.17
2022-12-16T10:04:17.361Z,36.50
2022-12-16T10:07:08.098Z,35.55
2022-12-16T10:10:11.805Z,37.37
2022-12-16T10:13:02.834Z,38.13
2022-12-16T10:15:57.517Z,37.55
2022-12-16T10:18:59.135Z,31.73
2022-12-16T10:21:54.775Z,34.17
2022-12-16T10:24:55.772Z,31.38
2022-12-16T10:28:03.963Z,34.30
2022-12-16T10:30:51.391Z,36.92
2022-12-16T10:33:38.909Z,31.48
2022-12-16T10:36:31.643Z,33.90
2022-12-16T10:39:21.424Z,36.15
2022-12-16T10:42:10.119Z,34.25
2022-12-16T10:45:18.442Z,34.40
2022-12-16T10:48:03.197Z,34.13
2022-12-16T10:50:48.018Z,42.58
2022-12-16T10:53:41.817Z,42.42
2022-12-16T10:57:08.860Z,36.17
2022-12-16T10:59:59.134Z,35.30
2022-12-16T11:02:47.309Z,30.17
2022-12-16T11:05:51.977Z,33.17
2022-12-16T11:08:45.013Z,35.35
2022-12-16T11:11:47.346Z,38.85
2022-12-16T11:15:05.739Z,29.70
2022-12-16T11:17:49.242Z,35.70
2022-12-16T11:20:39.591Z,34.03
2022-12-16T11:23:31.362Z,36.67
2022-12-16T11:26:37.041Z,28.67
2022-12-16T11:29:22.722Z,32.50
2022-12-16T11:32:13.475Z,30.00
2022-12-16T11:35:00.400Z,31.27
2022-12-16T11:37:47.804Z,29.30
2022-12-16T11:40:35.551Z,34.50
2022-12-16T11:43:24.312Z,31.35
2022-12-16T11:46:11.295Z,31.77
2022-12-16T11:49:23.468Z,33.95
2022-12-16T11:52:35.972Z,30.70
2022-12-16T11:56:11.164Z,30.17
2022-12-16T11:59:03.982Z,33.63
2022-12-16T12:01:51.181Z,36.90
2022-12-16T12:04:36.333Z,30.13
2022-12-16T12:07:45.594Z,31.45
2022-12-16T12:10:43.413Z,31.98
2022-12-16T12:13:54.659Z,32.13
2022-12-16T12:17:12.111Z,33.58
2022-12-16T12:20:31.095Z,35.25
2022-12-16T12:23:24.592Z,33.70
2022-12-16T12:26:30.331Z,34.90
2022-12-16T12:29:40.137Z,33.90
2022-12-16T12:32:54.802Z,38.00
2022-12-16T12:36:19.355Z,43.13
2022-12-16T12:39:23.744Z,50.03
2022-12-16T12:42:36.249Z,42.65
2022-12-16T12:46:08.464Z,40.38
2022-12-16T12:48:59.499Z,42.70
2022-12-16T12:51:54.232Z,37.83
2022-12-16T12:54:48.108Z,40.58
2022-12-16T12:57:36.874Z,37.05
2022-12-16T13:00:38.713Z,41.63
2022-12-16T13:03:52.394Z,45.70
2022-12-16T13:06:39.192Z,39.45
2022-12-16T13:09:47.120Z,38.85
2022-12-16T13:12:31.906Z,40.40
2022-12-16T13:15:25.976Z,40.40
2022-12-16T13:18:19.995Z,37.85
2022-12-16T13:21:43.794Z,43.88
2022-12-16T13:24:53.190Z,38.10
2022-12-16T13:27:38.783Z,45.90
2022-12-16T13:30:39.672Z,39.10
2022-12-16T13:33:40.115Z,36.03
2022-12-16T13:36:25.932Z,38.58
2022-12-16T13:39:13.825Z,44.30
2022-12-16T13:41:58.777Z,40.10
2022-12-16T13:45:02.037Z,40.17
2022-12-16T13:47:51.245Z,40.78
2022-12-16T13:50:55.198Z,36.10
2022-12-16T13:53:44.273Z,38.60
2022-12-16T13:56:33.601Z,42.40
2022-12-16T13:59:24.001Z,38.13
2022-12-16T14:02:13.236Z,37.35
2022-12-16T14:05:08.587Z,43.72
2022-12-16T14:07:57.340Z,39.67
2022-12-16T14:10:48.518Z,46.45
2022-12-16T14:13:41.178Z,43.67
2022-12-16T14:16:32.356Z,44.42
2022-12-16T14:19:34.060Z,41.45
2022-12-16T14:25:09.487Z,37.22
2022-12-16T14:27:54.442Z,35.10
2022-12-16T14:30:43.299Z,33.50
2022-12-16T14:33:35.530Z,38.30
2022-12-16T14:36:21.020Z,35.45
2022-12-16T14:39:07.891Z,35.95
2022-12-16T14:41:53.442Z,30.35
2022-12-16T14:44:43.236Z,34.10
2022-12-16T14:47:39.361Z,33.63
2022-12-16T14:50:46.114Z,37.13
2022-12-16T14:53:40.300Z,35.05
2022-12-16T14:56:35.270Z,30.90
2022-12-16T14:59:32.337Z,31.40
2022-12-16T15:02:31.147Z,29.83
2022-12-16T15:05:16.691Z,32.03
2022-12-16T15:08:01.797Z,28.90
2022-12-16T15:10:47.171Z,26.95
2022-12-16T15:13:36.920Z,33.25
2022-12-16T15:16:24.345Z,27.60
2022-12-16T15:19:17.682Z,31.30
2022-12-16T15:22:03.181Z,30.48
2022-12-16T15:24:53.908Z,40.05
2022-12-16T15:27:51.787Z,27.73
2022-12-16T15:31:04.589Z,26.75
2022-12-16T15:33:56.234Z,31.08
2022-12-16T15:39:50.415Z,28.05
2022-12-16T15:42:43.376Z,32.00
2022-12-16T15:45:56.182Z,38.22
2022-12-16T15:48:44.296Z,26.63
2022-12-16T15:51:47.888Z,27.90
2022-12-16T15:54:41.319Z,34.75
2022-12-16T15:57:44.801Z,31.77
2022-12-16T16:00:55.893Z,26.40
2022-12-16T16:03:45.808Z,32.75
2022-12-16T16:06:40.164Z,32.92
2022-12-16T16:09:38.429Z,30.42
2022-12-16T16:12:23.178Z,32.08
2022-12-16T16:15:07.928Z,33.13
2022-12-16T16:17:52.748Z,34.55
2022-12-16T16:20:39.521Z,39.95
2022-12-16T16:23:24.242Z,35.65
2022-12-16T16:26:09.216Z,50.13
2022-12-16T16:28:54.044Z,45.75
2022-12-16T16:31:38.878Z,38.25
2022-12-16T16:34:24.106Z,36.78
2022-12-16T16:37:13.064Z,36.42
2022-12-16T16:39:58.500Z,41.78
2022-12-16T16:42:43.688Z,37.58
2022-12-16T16:45:29.553Z,39.17
2022-12-16T16:48:29.860Z,41.58
2022-12-16T16:51:16.151Z,34.30
2022-12-16T16:54:15.639Z,32.95
2022-12-16T16:57:00.553Z,32.03
2022-12-16T16:59:45.409Z,36.13
2022-12-16T17:02:40.858Z,34.38
2022-12-16T17:05:28.277Z,32.45
2022-12-16T17:08:13.755Z,30.55
2022-12-16T17:10:58.616Z,31.10
2022-12-16T17:13:43.474Z,31.00
2022-12-16T17:16:32.710Z,31.10
2022-12-16T17:19:18.025Z,33.83
2022-12-16T17:22:02.920Z,30.65
2022-12-16T17:24:51.425Z,33.20
2022-12-16T17:27:42.007Z,32.40
2022-12-16T17:30:36.009Z,30.92
2022-12-16T17:33:21.755Z,25.60
2022-12-16T17:36:08.269Z,30.50
2022-12-16T17:38:57.768Z,30.40
2022-12-16T17:41:43.021Z,31.05
2022-12-16T17:44:28.514Z,29.08
2022-12-16T17:47:13.352Z,29.70
2022-12-16T17:49:58.347Z,40.17
2022-12-16T17:52:43.364Z,40.67
2022-12-16T17:55:28.699Z,39.80
2022-12-16T17:58:13.743Z,36.67
2022-12-16T18:00:58.993Z,40.45
2022-12-16T18:03:44.031Z,35.78
2022-12-16T18:06:29.119Z,33.22
2022-12-16T18:09:14.018Z,32.50
2022-12-16T18:11:58.900Z,29.73
2022-12-16T18:14:43.730Z,27.15
2022-12-16T18:17:28.491Z,30.33
2022-12-16T18:20:13.447Z,37.70
2022-12-16T18:22:58.543Z,32.65
2022-12-16T18:25:43.496Z,32.25
2022-12-16T18:28:28.930Z,35.00
2022-12-16T18:31:13.802Z,36.55
2022-12-16T18:33:59.145Z,43.00
2022-12-16T18:36:44.449Z,33.88
2022-12-16T18:39:29.303Z,34.60
2022-12-16T18:42:14.206Z,33.90
2022-12-16T18:45:01.271Z,39.40
2022-12-16T18:47:46.960Z,36.95
2022-12-16T18:50:37.269Z,31.42
2022-12-16T18:53:23.855Z,31.70
2022-12-16T18:56:18.319Z,41.28
2022-12-16T18:59:03.162Z,37.20
2022-12-16T19:01:48.090Z,38.95
2022-12-16T19:04:33.142Z,42.15
2022-12-16T19:07:18.542Z,45.75
2022-12-16T19:10:03.486Z,43.55
2022-12-16T19:12:59.146Z,41.33
2022-12-16T19:15:43.887Z,46.80
2022-12-16T19:18:30.441Z,40.08
2022-12-16T19:21:16.142Z,39.85
2022-12-16T19:24:01.777Z,41.97
2022-12-16T19:26:46.615Z,42.13
2022-12-16T19:29:31.375Z,43.17
2022-12-16T19:32:16.302Z,46.63
2022-12-16T19:35:01.467Z,43.38
2022-12-16T19:37:46.278Z,44.65
2022-12-16T19:40:31.069Z,36.47
2022-12-16T19:43:15.926Z,37.78
2022-12-16T19:46:00.842Z,40.10
2022-12-16T19:48:45.961Z,38.78
2022-12-16T19:51:30.937Z,50.13
2022-12-16T19:54:15.682Z,38.65
2022-12-16T19:57:00.628Z,36.90
2022-12-16T19:59:45.515Z,33.17
2022-12-16T20:02:31.229Z,32.90
2022-12-16T20:05:16.787Z,32.50
2022-12-16T20:08:01.702Z,44.90
2022-12-16T20:10:46.609Z,40.08
2022-12-16T20:13:31.893Z,41.90
2022-12-16T20:16:24.329Z,52.88
2022-12-16T20:19:09.824Z,54.88
2022-12-16T20:21:56.448Z,35.92
2022-12-16T20:24:42.796Z,34.78
2022-12-16T20:27:28.600Z,35.70
2022-12-16T20:30:13.953Z,33.72
2022-12-16T20:32:59.479Z,33.13
2022-12-16T20:35:44.236Z,36.72
2022-12-16T20:38:29.187Z,35.45
2022-12-16T20:41:16.221Z,45.78
2022-12-16T20:44:01.031Z,36.58
2022-12-16T20:46:47.487Z,39.00
2022-12-16T20:49:32.967Z,38.42
2022-12-16T20:52:17.781Z,40.72
2022-12-16T20:55:02.542Z,36.97
2022-12-16T20:57:47.391Z,39.67
2022-12-16T21:00:32.877Z,38.42
2022-12-16T21:03:17.782Z,32.65
2022-12-16T21:06:03.064Z,35.80
2022-12-16T21:08:48.027Z,37.72
2022-12-16T21:11:32.830Z,41.00
2022-12-16T21:14:17.653Z,41.28
2022-12-16T21:17:02.434Z,36.10
2022-12-16T21:19:47.376Z,36.55
2022-12-16T21:22:32.150Z,31.52
2022-12-16T21:25:22.759Z,37.53
2022-12-16T21:28:09.717Z,34.85
2022-12-16T21:31:05.245Z,36.03
2022-12-16T21:33:50.274Z,35.15
2022-12-16T21:36:35.541Z,46.13
2022-12-16T21:39:20.897Z,46.92
2022-12-16T21:42:05.636Z,45.38
2022-12-16T21:44:50.488Z,34.78
2022-12-16T21:47:35.230Z,38.55
2022-12-16T21:50:20.593Z,36.85
2022-12-16T21:53:06.522Z,38.45
2022-12-16T21:55:51.341Z,41.08
2022-12-16T21:58:37.292Z,36.85
2022-12-16T22:01:23.167Z,37.80
2022-12-16T22:04:08.344Z,32.22
2022-12-16T22:06:54.763Z,38.00
2022-12-16T22:09:40.118Z,38.33
2022-12-16T22:12:25.537Z,43.00
2022-12-16T22:15:10.337Z,33.65
2022-12-16T22:17:58.596Z,37.80
2022-12-16T22:20:44.245Z,37.40
2022-12-16T22:23:29.147Z,35.22
2022-12-16T22:26:18.995Z,42.53
2022-12-16T22:29:04.514Z,35.00
2022-12-16T22:31:49.827Z,34.08
2022-12-16T22:34:34.746Z,33.97
2022-12-16T22:37:19.613Z,34.55
2022-12-16T22:40:04.582Z,37.90
2022-12-16T22:42:49.546Z,33.25
2022-12-16T22:45:34.748Z,31.58
2022-12-16T22:48:19.712Z,33.05
2022-12-16T22:51:04.528Z,34.65
2022-12-16T22:53:49.440Z,33.00
2022-12-16T22:56:34.497Z,39.72
2022-12-16T22:59:19.323Z,40.90
2022-12-16T23:02:04.087Z,33.95
2022-12-16T23:04:49.229Z,38.67
2022-12-16T23:07:34.474Z,36.50
2022-12-16T23:10:19.288Z,37.53
2022-12-16T23:13:20.880Z,37.10
2022-12-16T23:18:50.846Z,40.95
2022-12-16T23:21:38.163Z,37.95
2022-12-16T23:24:23.391Z,45.22
2022-12-16T23:27:08.586Z,34.05
2022-12-16T23:29:56.625Z,35.00
2022-12-16T23:32:42.642Z,37.65
2022-12-16T23:35:28.120Z,40.75
2022-12-16T23:38:24.415Z,40.22
2022-12-16T23:41:16.438Z,42.45
2022-12-16T23:44:02.310Z,41.60
2022-12-16T23:46:47.622Z,47.03
2022-12-16T23:49:32.854Z,42.15
2022-12-16T23:52:17.800Z,46.95
2022-12-16T23:55:02.741Z,45.08
2022-12-16T23:57:47.796Z,40.67
